createdAt,value
2018-03-23T00:01:39.931Z,20.37
2018-03-23T00:04:06.617Z,21.33
2018-03-23T00:06:33.405Z,20.87
2018-03-23T00:09:00.095Z,22.27
2018-03-23T00:11:26.790Z,21.30
2018-03-23T00:13:53.477Z,24.93
2018-03-23T00:16:20.169Z,24.47
2018-03-23T00:18:46.876Z,25.70
2018-03-23T00:21:13.552Z,28.60
2018-03-23T00:23:40.297Z,26.90
2018-03-23T00:26:07.051Z,28.80
2018-03-23T00:28:33.754Z,29.37
2018-03-23T00:31:00.441Z,30.87
2018-03-23T00:33:27.124Z,30.93
2018-03-23T00:35:53.825Z,31.30
2018-03-23T00:38:20.517Z,34.40
2018-03-23T00:40:47.393Z,35.37
2018-03-23T00:43:14.145Z,34.47
2018-03-23T00:45:40.845Z,34.10
2018-03-23T00:48:07.537Z,37.70
2018-03-23T00:50:34.569Z,36.77
2018-03-23T00:53:01.245Z,36.20
2018-03-23T00:55:28.057Z,37.30
2018-03-23T00:57:54.754Z,35.20
2018-03-23T01:00:21.445Z,38.50
2018-03-23T01:02:48.150Z,37.43
2018-03-23T01:05:14.880Z,38.07
2018-03-23T01:07:41.558Z,39.40
2018-03-23T01:10:08.262Z,36.47
2018-03-23T01:12:34.953Z,37.47
2018-03-23T01:15:01.661Z,39.90
2018-03-23T01:17:28.349Z,39.10
2018-03-23T01:19:55.232Z,37.17
2018-03-23T01:22:21.914Z,36.97
2018-03-23T01:24:48.688Z,37.13
2018-03-23T01:27:15.389Z,38.13
2018-03-23T01:29:42.161Z,38.90
2018-03-23T01:32:08.840Z,33.03
2018-03-23T01:34:35.531Z,37.77
2018-03-23T01:37:02.240Z,37.40
2018-03-23T01:39:28.988Z,36.60
2018-03-23T01:41:55.688Z,33.20
2018-03-23T01:44:22.370Z,36.20
2018-03-23T01:46:49.081Z,37.57
2018-03-23T01:49:15.760Z,32.60
2018-03-23T01:51:42.451Z,31.53
2018-03-23T01:54:09.135Z,34.60
2018-03-23T01:56:35.803Z,28.97
2018-03-23T01:59:02.506Z,30.17
2018-03-23T02:01:29.164Z,32.07
2018-03-23T02:03:55.856Z,31.93
2018-03-23T02:06:22.668Z,34.20
2018-03-23T02:08:49.345Z,32.97
2018-03-23T02:11:16.034Z,34.60
2018-03-23T02:13:42.707Z,32.27
2018-03-23T02:16:09.400Z,32.43
2018-03-23T02:18:36.072Z,33.67
2018-03-23T02:21:02.752Z,32.57
2018-03-23T02:23:29.565Z,33.37
2018-03-23T02:25:56.268Z,32.73
2018-03-23T02:28:22.988Z,33.17
2018-03-23T02:30:49.653Z,33.90
2018-03-23T02:33:16.377Z,32.67
2018-03-23T02:35:43.070Z,30.83
2018-03-23T02:38:09.777Z,32.33
2018-03-23T02:40:36.462Z,32.13
2018-03-23T02:43:03.149Z,32.40
2018-03-23T02:45:29.845Z,32.43
2018-03-23T02:47:56.610Z,30.87
2018-03-23T02:50:23.316Z,31.20
2018-03-23T02:52:50.097Z,31.17
2018-03-23T02:55:16.834Z,32.00
2018-03-23T02:57:43.531Z,33.53
2018-03-23T03:00:10.216Z,36.60
2018-03-23T03:02:36.908Z,37.07
2018-03-23T03:05:03.594Z,40.47
2018-03-23T03:07:30.302Z,39.40
2018-03-23T03:09:56.997Z,40.37
2018-03-23T03:12:23.697Z,44.80
2018-03-23T03:14:50.389Z,43.60
2018-03-23T03:17:17.085Z,45.67
2018-03-23T03:19:43.782Z,50.30
2018-03-23T03:22:10.490Z,52.83
2018-03-23T03:24:37.184Z,52.07
2018-03-23T03:27:03.873Z,54.13
2018-03-23T03:29:30.569Z,52.00
2018-03-23T03:31:57.253Z,55.40
2018-03-23T03:34:23.960Z,55.20
2018-03-23T03:36:50.640Z,53.07
2018-03-23T03:39:17.353Z,56.50
2018-03-23T03:41:44.033Z,53.30
2018-03-23T03:44:10.843Z,48.37
2018-03-23T03:46:37.537Z,51.17
2018-03-23T03:49:04.217Z,51.33
2018-03-23T03:51:30.945Z,50.17
2018-03-23T03:53:57.658Z,50.80
2018-03-23T03:56:24.373Z,50.80
2018-03-23T03:58:51.053Z,53.80
2018-03-23T04:01:17.758Z,50.13
2018-03-23T04:03:44.560Z,45.60
2018-03-23T04:06:11.234Z,44.20
2018-03-23T04:08:37.936Z,45.17
2018-03-23T04:11:04.610Z,45.87
2018-03-23T04:13:31.305Z,42.37
2018-03-23T04:15:57.994Z,43.27
2018-03-23T04:18:24.684Z,39.87
2018-03-23T04:20:51.462Z,42.77
2018-03-23T04:23:18.226Z,42.33
2018-03-23T04:25:44.981Z,42.73
2018-03-23T04:28:11.660Z,45.47
2018-03-23T04:30:38.364Z,45.20
2018-03-23T04:33:05.061Z,45.57
2018-03-23T04:35:31.738Z,42.50
2018-03-23T04:37:58.433Z,43.67
2018-03-23T04:40:26.017Z,44.50
2018-03-23T04:42:52.721Z,42.07
2018-03-23T04:45:19.557Z,38.13
2018-03-23T04:47:46.228Z,37.70
2018-03-23T04:50:12.941Z,36.43
2018-03-23T04:52:39.770Z,35.40
2018-03-23T04:55:06.462Z,37.13
2018-03-23T04:57:33.154Z,35.03
2018-03-23T04:59:59.886Z,36.87
2018-03-23T05:02:26.597Z,37.70
2018-03-23T05:04:53.385Z,35.70
2018-03-23T05:07:20.086Z,36.77
2018-03-23T05:09:46.785Z,35.53
2018-03-23T05:12:13.461Z,34.57
2018-03-23T05:14:40.185Z,33.00
2018-03-23T05:17:06.869Z,31.30
2018-03-23T05:19:33.568Z,32.30
2018-03-23T05:22:00.286Z,29.77
2018-03-23T05:24:26.965Z,33.40
2018-03-23T05:26:53.657Z,31.80
2018-03-23T05:29:20.360Z,34.50
2018-03-23T05:31:47.063Z,28.83
2018-03-23T05:34:13.768Z,29.97
2018-03-23T05:36:40.538Z,29.20
2018-03-23T05:39:07.452Z,27.53
2018-03-23T05:41:34.158Z,27.97
2018-03-23T05:44:00.857Z,27.90
2018-03-23T05:46:27.621Z,26.70
2018-03-23T05:48:54.325Z,25.40
2018-03-23T05:51:21.040Z,27.63
2018-03-23T05:53:47.716Z,25.90
2018-03-23T05:56:14.425Z,25.93
2018-03-23T05:58:41.104Z,24.60
2018-03-23T06:01:07.833Z,27.67
2018-03-23T06:03:34.520Z,25.40
2018-03-23T06:06:01.243Z,24.17
2018-03-23T06:08:27.933Z,25.30
2018-03-23T06:10:54.641Z,24.13
2018-03-23T06:13:21.497Z,24.20
2018-03-23T06:15:48.173Z,23.10
2018-03-23T06:18:14.882Z,25.47
2018-03-23T06:20:41.594Z,23.90
2018-03-23T06:23:08.300Z,22.83
2018-03-23T06:25:35.317Z,24.40
2018-03-23T06:28:02.023Z,24.77
2018-03-23T06:30:28.705Z,24.63
2018-03-23T06:32:55.394Z,21.40
2018-03-23T06:35:22.103Z,22.90
2018-03-23T06:37:48.793Z,20.47
2018-03-23T06:40:15.512Z,20.73
2018-03-23T06:42:42.198Z,21.03
2018-03-23T06:45:08.901Z,21.80
2018-03-23T06:47:35.601Z,21.97
2018-03-23T06:50:02.412Z,20.23
2018-03-23T06:52:29.095Z,20.10
2018-03-23T06:54:55.845Z,19.67
2018-03-23T06:57:22.560Z,20.00
2018-03-23T06:59:49.229Z,18.27
2018-03-23T07:02:15.944Z,18.70
2018-03-23T07:04:42.621Z,17.50
2018-03-23T07:07:09.317Z,21.07
2018-03-23T07:09:36.134Z,19.30
2018-03-23T07:12:02.986Z,20.70
2018-03-23T07:14:29.710Z,18.90
2018-03-23T07:16:56.387Z,19.33
2018-03-23T07:19:23.102Z,21.47
2018-03-23T07:21:49.914Z,19.77
2018-03-23T07:24:16.645Z,19.40
2018-03-23T07:26:43.405Z,18.57
2018-03-23T07:29:10.077Z,18.77
2018-03-23T07:31:36.790Z,17.60
2018-03-23T07:34:03.672Z,18.10
2018-03-23T07:36:30.342Z,17.60
2018-03-23T07:38:57.077Z,19.70
2018-03-23T07:41:23.769Z,16.87
2018-03-23T07:43:50.470Z,18.57
2018-03-23T07:46:17.175Z,15.90
2018-03-23T07:48:43.960Z,16.50
2018-03-23T07:51:10.646Z,18.83
2018-03-23T07:53:37.456Z,16.40
2018-03-23T07:56:04.191Z,16.93
2018-03-23T07:58:30.888Z,15.20
2018-03-23T08:00:57.593Z,15.27
2018-03-23T08:03:24.298Z,16.90
2018-03-23T08:05:50.977Z,14.90
2018-03-23T08:08:17.778Z,16.40
2018-03-23T08:10:44.484Z,13.77
2018-03-23T08:13:11.236Z,15.00
2018-03-23T08:15:37.997Z,15.43
2018-03-23T08:18:04.686Z,15.70
2018-03-23T08:20:31.549Z,17.20
2018-03-23T08:22:58.224Z,16.23
2018-03-23T08:25:25.110Z,16.57
2018-03-23T08:27:51.817Z,15.70
2018-03-23T08:30:18.631Z,14.87
2018-03-23T08:32:45.313Z,15.57
2018-03-23T08:35:12.174Z,14.70
2018-03-23T08:37:38.874Z,13.37
2018-03-23T08:40:05.700Z,13.90
2018-03-23T08:42:32.417Z,13.03
2018-03-23T08:44:59.292Z,12.70
2018-03-23T08:47:25.977Z,12.83
2018-03-23T08:49:52.682Z,14.70
2018-03-23T08:52:19.369Z,14.30
2018-03-23T08:54:46.087Z,12.53
2018-03-23T08:57:12.780Z,12.70
2018-03-23T08:59:39.460Z,11.63
2018-03-23T09:02:06.241Z,13.47
2018-03-23T09:04:32.893Z,12.53
2018-03-23T09:06:59.594Z,12.53
2018-03-23T09:09:26.293Z,12.13
2018-03-23T09:11:53.192Z,13.23
2018-03-23T09:14:19.894Z,14.17
2018-03-23T09:16:46.594Z,12.67
2018-03-23T09:19:13.281Z,11.87
2018-03-23T09:21:40.054Z,12.70
2018-03-23T09:24:06.745Z,12.40
2018-03-23T09:26:33.593Z,16.80
2018-03-23T09:29:00.274Z,13.10
2018-03-23T09:31:26.988Z,14.20
2018-03-23T09:33:53.672Z,11.77
2018-03-23T09:36:20.394Z,11.97
2018-03-23T09:38:47.102Z,13.03
2018-03-23T09:41:13.894Z,12.67
2018-03-23T09:43:40.574Z,13.37
2018-03-23T09:46:07.281Z,11.07
2018-03-23T09:48:33.966Z,12.03
2018-03-23T09:51:00.796Z,12.10
2018-03-23T09:53:27.509Z,13.70
2018-03-23T09:55:54.254Z,12.80
2018-03-23T09:58:22.754Z,13.30
2018-03-23T10:00:49.459Z,11.67
2018-03-23T10:03:16.245Z,14.10
2018-03-23T10:05:42.950Z,12.10
2018-03-23T10:08:09.637Z,12.60
2018-03-23T10:10:36.334Z,13.80
2018-03-23T10:13:03.225Z,13.50
2018-03-23T10:15:29.965Z,13.50
2018-03-23T10:17:56.677Z,14.00
2018-03-23T10:20:23.372Z,12.40
2018-03-23T10:22:50.102Z,11.00
2018-03-23T10:25:16.765Z,12.77
2018-03-23T10:27:43.459Z,13.30
2018-03-23T10:30:10.202Z,11.60
2018-03-23T10:32:36.997Z,11.40
2018-03-23T10:35:03.668Z,10.67
2018-03-23T10:37:30.386Z,8.60
2018-03-23T10:39:57.057Z,9.30
2018-03-23T10:42:23.757Z,11.53
2018-03-23T10:44:50.446Z,9.50
2018-03-23T10:47:17.150Z,11.50
2018-03-23T10:49:43.845Z,11.60
2018-03-23T10:52:10.530Z,12.23
2018-03-23T10:54:37.245Z,12.93
2018-03-23T10:57:03.947Z,12.00
2018-03-23T10:59:30.640Z,14.00
2018-03-23T11:02:03.065Z,13.33
2018-03-23T11:04:29.785Z,10.20
2018-03-23T11:06:56.486Z,11.63
2018-03-23T11:09:23.198Z,10.20
2018-03-23T11:11:49.884Z,11.17
2018-03-23T11:14:16.609Z,9.03
2018-03-23T11:16:43.290Z,9.00
2018-03-23T11:19:09.993Z,8.50
2018-03-23T11:21:36.817Z,8.20
2018-03-23T11:24:03.496Z,8.30
2018-03-23T11:26:30.198Z,8.20
2018-03-23T11:28:56.978Z,8.33
2018-03-23T11:31:23.678Z,8.67
2018-03-23T11:33:50.373Z,9.30
2018-03-23T11:36:17.066Z,9.87
2018-03-23T11:38:43.749Z,9.40
2018-03-23T11:41:10.493Z,10.53
2018-03-23T11:43:37.171Z,11.23
2018-03-23T11:46:03.851Z,8.90
2018-03-23T11:48:30.554Z,9.80
2018-03-23T11:50:57.238Z,8.10
2018-03-23T11:53:23.977Z,9.10
2018-03-23T11:55:50.681Z,10.27
2018-03-23T11:58:17.369Z,9.90
2018-03-23T12:00:44.048Z,8.63
2018-03-23T12:03:11.014Z,10.70
2018-03-23T12:05:37.698Z,9.20
2018-03-23T12:08:04.430Z,9.33
2018-03-23T12:10:31.134Z,10.47
2018-03-23T12:12:57.830Z,10.07
2018-03-23T12:15:24.554Z,9.27
2018-03-23T12:17:51.237Z,8.97
2018-03-23T12:20:17.910Z,8.60
2018-03-23T12:22:44.607Z,9.67
2018-03-23T12:25:11.306Z,7.57
2018-03-23T12:27:38.082Z,8.13
2018-03-23T12:30:04.771Z,8.93
2018-03-23T12:32:31.478Z,7.10
2018-03-23T12:34:58.163Z,8.90
2018-03-23T12:37:24.926Z,8.40
2018-03-23T12:39:52.330Z,9.20
2018-03-23T12:42:19.040Z,10.40
2018-03-23T12:44:45.730Z,9.80
2018-03-23T12:47:12.573Z,9.27
2018-03-23T12:49:39.305Z,10.10
2018-03-23T12:52:06.198Z,9.57
2018-03-23T12:54:32.883Z,9.50
2018-03-23T12:56:59.620Z,9.40
2018-03-23T12:59:26.322Z,9.97
2018-03-23T13:01:53.013Z,9.10
2018-03-23T13:04:19.959Z,8.93
2018-03-23T13:06:46.849Z,8.80
2018-03-23T13:09:13.550Z,8.97
2018-03-23T13:11:40.293Z,9.00
2018-03-23T13:14:07.010Z,8.87
2018-03-23T13:16:33.712Z,8.90
2018-03-23T13:19:00.470Z,8.07
2018-03-23T13:21:27.180Z,8.40
2018-03-23T13:23:53.867Z,8.60
2018-03-23T13:26:20.761Z,8.57
2018-03-23T13:28:47.434Z,7.90
2018-03-23T13:31:14.153Z,8.40
2018-03-23T13:33:40.848Z,7.70
2018-03-23T13:36:07.539Z,7.20
2018-03-23T13:38:34.238Z,8.20
2018-03-23T13:41:00.917Z,7.40
2018-03-23T13:43:27.645Z,8.73
2018-03-23T13:45:54.320Z,9.30
2018-03-23T13:48:21.045Z,8.17
2018-03-23T13:50:47.725Z,7.93
2018-03-23T13:53:14.420Z,8.67
2018-03-23T13:55:41.094Z,7.90
2018-03-23T13:58:08.054Z,8.87
2018-03-23T14:00:40.510Z,9.07
2018-03-23T14:03:07.184Z,8.87
2018-03-23T14:05:33.882Z,7.13
2018-03-23T14:08:00.576Z,8.70
2018-03-23T14:10:27.268Z,8.43
2018-03-23T14:12:53.990Z,7.00
2018-03-23T14:15:20.693Z,8.03
2018-03-23T14:17:47.423Z,7.83
2018-03-23T14:20:14.065Z,7.83
2018-03-23T14:22:40.756Z,7.17
2018-03-23T14:25:07.475Z,7.20
2018-03-23T14:27:34.340Z,8.73
2018-03-23T14:30:01.035Z,8.93
2018-03-23T14:32:27.843Z,7.73
2018-03-23T14:34:54.525Z,8.10
2018-03-23T14:37:21.205Z,8.80
2018-03-23T14:39:47.934Z,8.60
2018-03-23T14:42:14.628Z,9.43
2018-03-23T14:44:41.313Z,7.63
2018-03-23T14:47:08.153Z,9.00
2018-03-23T14:49:34.900Z,8.57
2018-03-23T14:52:01.779Z,8.00
2018-03-23T14:54:28.469Z,8.30
2018-03-23T14:56:55.217Z,8.37
2018-03-23T14:59:21.906Z,8.90
2018-03-23T15:01:48.578Z,9.63
2018-03-23T15:04:15.306Z,9.10
2018-03-23T15:06:42.017Z,10.20
2018-03-23T15:09:08.710Z,10.03
2018-03-23T15:11:35.436Z,10.87
2018-03-23T15:14:07.859Z,9.90
2018-03-23T15:16:34.608Z,11.27
2018-03-23T15:19:01.289Z,11.57
2018-03-23T15:21:27.981Z,13.73
2018-03-23T15:23:54.674Z,13.77
2018-03-23T15:26:21.377Z,14.70
2018-03-23T15:28:48.110Z,13.60
2018-03-23T15:31:14.938Z,14.17
2018-03-23T15:33:41.886Z,13.97
2018-03-23T15:36:08.577Z,13.60
2018-03-23T15:38:35.288Z,13.80
2018-03-23T15:41:01.970Z,15.50
2018-03-23T15:43:28.759Z,13.30
2018-03-23T15:45:55.510Z,13.70
2018-03-23T15:48:22.423Z,14.03
2018-03-23T15:50:49.112Z,14.17
2018-03-23T15:53:15.830Z,16.30
2018-03-23T15:55:42.642Z,15.67
2018-03-23T15:58:09.418Z,14.20
2018-03-23T16:00:36.147Z,16.23
2018-03-23T16:03:02.831Z,15.40
2018-03-23T16:05:29.554Z,15.47
2018-03-23T16:07:56.263Z,15.80
2018-03-23T16:10:22.967Z,16.50
2018-03-23T16:12:49.825Z,17.27
2018-03-23T16:15:16.524Z,16.27
2018-03-23T16:17:43.317Z,17.03
2018-03-23T16:20:10.051Z,17.23
2018-03-23T16:22:36.893Z,16.80
2018-03-23T16:25:03.601Z,17.53
2018-03-23T16:27:30.305Z,18.13
2018-03-23T16:29:57.016Z,15.73
2018-03-23T16:32:23.705Z,17.07
2018-03-23T16:34:50.422Z,14.83
2018-03-23T16:37:17.098Z,16.27
2018-03-23T16:39:43.802Z,17.23
2018-03-23T16:42:10.562Z,16.10
2018-03-23T16:44:37.277Z,15.30
2018-03-23T16:47:03.977Z,17.07
2018-03-23T16:49:30.698Z,16.77
2018-03-23T16:51:57.416Z,16.70
2018-03-23T16:54:24.104Z,18.47
2018-03-23T16:56:50.901Z,18.87
2018-03-23T16:59:17.624Z,17.70
2018-03-23T17:01:44.318Z,17.30
2018-03-23T17:04:11.059Z,15.27
2018-03-23T17:06:37.783Z,13.83
2018-03-23T17:09:04.492Z,14.17
2018-03-23T17:11:31.196Z,15.57
2018-03-23T17:13:57.910Z,14.13
2018-03-23T17:16:24.597Z,12.87
2018-03-23T17:18:51.302Z,14.30
2018-03-23T17:21:17.994Z,14.10
2018-03-23T17:23:44.703Z,13.70
2018-03-23T17:26:11.970Z,15.10
2018-03-23T17:28:38.858Z,13.57
2018-03-23T17:31:05.560Z,12.43
2018-03-23T17:33:32.275Z,13.00
2018-03-23T17:35:58.949Z,12.43
2018-03-23T17:38:25.673Z,13.07
2018-03-23T17:40:52.374Z,11.23
2018-03-23T17:43:19.066Z,8.00
2018-03-23T17:45:45.734Z,8.70
2018-03-23T17:48:12.422Z,7.53
2018-03-23T17:50:39.315Z,9.10
2018-03-23T17:53:06.000Z,9.80
2018-03-23T17:55:32.729Z,11.00
2018-03-23T17:57:59.531Z,10.90
2018-03-23T18:00:26.258Z,12.17
2018-03-23T18:02:52.937Z,11.00
2018-03-23T18:05:19.615Z,12.87
2018-03-23T18:07:46.312Z,13.30
2018-03-23T18:10:13.083Z,14.17
2018-03-23T18:12:39.798Z,13.00
2018-03-23T18:15:06.508Z,12.30
2018-03-23T18:17:34.042Z,12.57
2018-03-23T18:20:00.731Z,11.20
2018-03-23T18:22:27.445Z,11.93
2018-03-23T18:24:54.851Z,12.13
2018-03-23T18:27:21.584Z,10.80
2018-03-23T18:29:48.910Z,11.77
2018-03-23T18:32:15.663Z,12.03
2018-03-23T18:34:42.392Z,11.80
2018-03-23T18:37:09.080Z,11.70
2018-03-23T18:39:35.812Z,11.37
2018-03-23T18:42:02.512Z,11.00
2018-03-23T18:44:30.110Z,11.77
2018-03-23T18:46:56.822Z,9.43
2018-03-23T18:49:23.604Z,11.97
2018-03-23T18:51:50.367Z,11.10
2018-03-23T18:54:17.742Z,12.03
2018-03-23T18:56:44.488Z,11.23
2018-03-23T18:59:12.090Z,11.77
2018-03-23T19:01:38.781Z,11.83
2018-03-23T19:04:05.514Z,10.43
2018-03-23T19:06:32.215Z,9.47
2018-03-23T19:08:58.951Z,9.90
2018-03-23T19:11:25.650Z,11.10
2018-03-23T19:13:52.352Z,11.73
2018-03-23T19:16:19.037Z,9.90
2018-03-23T19:18:45.819Z,10.23
2018-03-23T19:21:12.537Z,9.67
2018-03-23T19:23:39.242Z,11.07
2018-03-23T19:26:05.972Z,10.97
2018-03-23T19:28:32.647Z,9.87
2018-03-23T19:30:59.398Z,10.03
2018-03-23T19:33:26.116Z,10.33
2018-03-23T19:35:52.814Z,10.83
2018-03-23T19:38:19.515Z,9.77
2018-03-23T19:40:46.214Z,11.00
2018-03-23T19:43:12.938Z,11.13
2018-03-23T19:45:39.670Z,10.47
2018-03-23T19:48:06.369Z,10.37
2018-03-23T19:50:33.090Z,10.50
2018-03-23T19:52:59.818Z,10.93
2018-03-23T19:55:26.673Z,11.33
2018-03-23T19:57:53.404Z,10.33
2018-03-23T20:00:20.078Z,8.90
2018-03-23T20:02:46.849Z,9.47
2018-03-23T20:05:13.501Z,9.60
2018-03-23T20:07:40.198Z,10.17
2018-03-23T20:10:06.915Z,10.90
2018-03-23T20:12:33.622Z,10.07
2018-03-23T20:15:00.491Z,10.60
2018-03-23T20:17:32.802Z,9.90
2018-03-23T20:19:59.514Z,10.10
2018-03-23T20:22:26.213Z,11.40
2018-03-23T20:24:52.942Z,10.57
2018-03-23T20:27:25.342Z,9.63
2018-03-23T20:29:52.014Z,10.10
2018-03-23T20:32:24.466Z,9.70
2018-03-23T20:34:51.333Z,9.70
2018-03-23T20:37:18.064Z,11.47
2018-03-23T20:39:44.756Z,10.83
2018-03-23T20:42:11.471Z,10.77
2018-03-23T20:44:38.222Z,10.40
2018-03-23T20:47:04.958Z,10.13
2018-03-23T20:49:31.679Z,9.33
2018-03-23T20:51:58.354Z,9.80
2018-03-23T20:54:25.096Z,9.33
2018-03-23T20:56:51.777Z,9.70
2018-03-23T20:59:18.483Z,9.57
2018-03-23T21:01:46.075Z,10.20
2018-03-23T21:04:12.778Z,9.70
2018-03-23T21:06:39.497Z,10.37
2018-03-23T21:09:06.401Z,10.00
2018-03-23T21:11:33.138Z,11.47
2018-03-23T21:13:59.874Z,8.90
2018-03-23T21:16:26.587Z,10.60
2018-03-23T21:18:53.301Z,11.23
2018-03-23T21:21:20.128Z,10.50
2018-03-23T21:23:46.853Z,11.50
2018-03-23T21:26:13.564Z,9.83
2018-03-23T21:28:40.295Z,11.87
2018-03-23T21:31:07.037Z,11.33
2018-03-23T21:33:33.751Z,10.27
2018-03-23T21:36:00.480Z,11.03
2018-03-23T21:38:27.205Z,9.53
2018-03-23T21:40:53.940Z,10.17
2018-03-23T21:43:20.631Z,9.60
2018-03-23T21:45:47.489Z,11.03
2018-03-23T21:48:14.199Z,11.00
2018-03-23T21:50:40.922Z,10.27
2018-03-23T21:53:07.836Z,10.57
2018-03-23T21:55:34.559Z,10.27
2018-03-23T21:58:01.274Z,10.30
2018-03-23T22:00:28.031Z,11.17
2018-03-23T22:02:54.735Z,11.53
2018-03-23T22:05:21.423Z,11.57
2018-03-23T22:07:48.157Z,11.23
2018-03-23T22:10:14.876Z,11.87
2018-03-23T22:12:41.599Z,11.63
2018-03-23T22:15:08.370Z,11.97
2018-03-23T22:17:35.061Z,11.07
2018-03-23T22:20:01.792Z,11.03
2018-03-23T22:22:28.495Z,12.53
2018-03-23T22:24:55.241Z,10.70
2018-03-23T22:27:21.934Z,11.97
2018-03-23T22:29:48.671Z,10.70
2018-03-23T22:32:15.376Z,10.60
2018-03-23T22:34:42.124Z,10.80
2018-03-23T22:37:08.834Z,10.37
2018-03-23T22:39:35.555Z,10.63
2018-03-23T22:42:02.240Z,12.07
2018-03-23T22:44:28.962Z,10.57
2018-03-23T22:46:55.668Z,11.93
2018-03-23T22:49:22.356Z,10.43
2018-03-23T22:51:49.074Z,10.37
2018-03-23T22:54:15.778Z,10.50
2018-03-23T22:56:42.492Z,10.93
2018-03-23T22:59:09.164Z,10.37
2018-03-23T23:01:35.881Z,10.80
2018-03-23T23:04:02.611Z,12.10
2018-03-23T23:06:29.287Z,11.30
2018-03-23T23:08:55.997Z,10.90
2018-03-23T23:11:22.797Z,11.10
2018-03-23T23:13:49.538Z,11.83
2018-03-23T23:16:16.247Z,11.73
2018-03-23T23:18:42.966Z,10.90
2018-03-23T23:21:09.721Z,11.70
2018-03-23T23:23:36.438Z,11.20
2018-03-23T23:26:03.200Z,11.77
2018-03-23T23:28:29.967Z,12.03
2018-03-23T23:30:56.650Z,11.43
2018-03-23T23:33:23.352Z,12.80
2018-03-23T23:35:50.135Z,13.17
2018-03-23T23:38:16.831Z,13.73
2018-03-23T23:40:43.645Z,12.30
2018-03-23T23:43:10.398Z,12.93
2018-03-23T23:45:37.129Z,13.80
2018-03-23T23:48:03.801Z,13.00
2018-03-23T23:50:30.517Z,11.73
2018-03-23T23:52:57.209Z,12.70
2018-03-23T23:55:24.057Z,12.10
2018-03-23T23:57:50.762Z,13.93
